Map

Track Data

SID SEASON NUMBER BASIN SUBBASIN NAME ISO_TIME NATURE LAT LON WMO_WIND WMO_PRES WMO_AGENCY TRACK_TYPE DIST2LAND LANDFALL IFLAG USA_AGENCY USA_ATCF_ID USA_LAT USA_LON USA_RECORD USA_STATUS USA_WIND USA_PRES USA_SSHS USA_R34_NE USA_R34_SE USA_R34_SW USA_R34_NW USA_R50_NE USA_R50_SE USA_R50_SW USA_R50_NW USA_R64_NE USA_R64_SE USA_R64_SW USA_R64_NW USA_POCI USA_ROCI USA_RMW USA_EYE TOKYO_LAT TOKYO_LON TOKYO_GRADE TOKYO_WIND TOKYO_PRES TOKYO_R50_DIR TOKYO_R50_LONG TOKYO_R50_SHORT TOKYO_R30_DIR TOKYO_R30_LONG TOKYO_R30_SHORT TOKYO_LAND CMA_LAT CMA_LON CMA_CAT CMA_WIND CMA_PRES HKO_LAT HKO_LON HKO_CAT HKO_WIND HKO_PRES NEWDELHI_LAT NEWDELHI_LON NEWDELHI_GRADE NEWDELHI_WIND NEWDELHI_PRES NEWDELHI_CI NEWDELHI_DP NEWDELHI_POCI REUNION_LAT REUNION_LON REUNION_TYPE REUNION_WIND REUNION_PRES REUNION_TNUM REUNION_CI REUNION_RMW REUNION_R34_NE REUNION_R34_SE REUNION_R34_SW REUNION_R34_NW REUNION_R50_NE REUNION_R50_SE REUNION_R50_SW REUNION_R50_NW REUNION_R64_NE REUNION_R64_SE REUNION_R64_SW REUNION_R64_NW BOM_LAT BOM_LON BOM_TYPE BOM_WIND BOM_PRES BOM_TNUM BOM_CI BOM_RMW BOM_R34_NE BOM_R34_SE BOM_R34_SW BOM_R34_NW BOM_R50_NE BOM_R50_SE BOM_R50_SW BOM_R50_NW BOM_R64_NE BOM_R64_SE BOM_R64_SW BOM_R64_NW BOM_ROCI BOM_POCI BOM_EYE BOM_POS_METHOD BOM_PRES_METHOD NADI_LAT NADI_LON NADI_CAT NADI_WIND NADI_PRES WELLINGTON_LAT WELLINGTON_LON WELLINGTON_WIND WELLINGTON_PRES DS824_LAT DS824_LON DS824_STAGE DS824_WIND DS824_PRES TD9636_LAT TD9636_LON TD9636_STAGE TD9636_WIND TD9636_PRES TD9635_LAT TD9635_LON TD9635_WIND TD9635_PRES TD9635_ROCI NEUMANN_LAT NEUMANN_LON NEUMANN_CLASS NEUMANN_WIND NEUMANN_PRES MLC_LAT MLC_LON MLC_CLASS MLC_WIND MLC_PRES USA_GUST BOM_GUST BOM_GUST_PER REUNION_GUST REUNION_GUST_PER USA_SEAHGT USA_SEARAD_NE USA_SEARAD_SE USA_SEARAD_SW USA_SEARAD_NW STORM_SPEED STORM_DIR
1962279S08087 1963 91 SI MM AMY 1962-10-06 00:00:00 TS -8.00000 87.0000 main 1495 1495 O________OO_O_ jtwc_sh SH011963 -8.00000 87.0000 30 -1 -8.00000 87.0000 TC 30 -8.00000 87.0000 1 30 -8.00000 87.0000 TC 30 13 257
1962279S08087 1963 91 SI MM AMY 1962-10-06 03:00:00 TS -8.15400 86.3425 main 1573 1573 P________PP_P_ SH011963 -8.16020 86.3451 30 -1 -8.16020 86.3451 TC 30 -8.13541 86.3349 1 30 -8.16020 86.3451 TC 30 13 257
1962279S08087 1963 91 SI MM AMY 1962-10-06 06:00:00 TS -8.29155 85.6964 main 1636 1636 O________OP_O_ jtwc_sh SH011963 -8.30000 85.7000 30 -1 -8.30000 85.7000 TC 30 -8.26618 85.6855 1 30 -8.30000 85.7000 TC 30 13 259
1962279S08087 1963 91 SI MM AMY 1962-10-06 09:00:00 TS -8.40279 85.0752 main 1678 1668 P________PP_P_ SH011963 -8.40744 85.0774 30 -1 -8.40744 85.0774 TC 30 -8.38884 85.0684 1 30 -8.40744 85.0774 TC 30 12 260
1962279S08087 1963 91 SI MM AMY 1962-10-06 12:00:00 TS -8.50000 84.5000 main 1670 1665 O________OO_O_ jtwc_sh SH011963 -8.50000 84.5000 30 -1 -8.50000 84.5000 TC 30 -8.50000 84.5000 1 30 -8.50000 84.5000 TC 30 11 260
1962279S08087 1963 91 SI MM AMY 1962-10-06 15:00:00 TS -8.60256 83.9793 main 1668 1663 P________PP_P_ SH011963 -8.59990 83.9775 30 -1 -8.59990 83.9775 TC 30 -8.59852 83.9898 1 -8.59990 83.9775 TC 30 10 258
1962279S08087 1963 91 SI MM AMY 1962-10-06 18:00:00 TS -8.70658 83.4949 main 1667 1663 O________OP_O_ jtwc_sh SH011963 -8.70000 83.5000 30 -1 -8.70000 83.5000 TC 30 -8.69178 83.5197 1 -8.70000 83.5000 TC 30 10 258
1962279S08087 1963 91 SI MM AMY 1962-10-06 21:00:00 TS -8.80887 83.0312 main 1668 1666 P________PP_P_ SH011963 -8.79236 83.0574 32 -1 -8.79236 83.0574 TC 32 -8.78918 83.0647 1 -8.79236 83.0574 TC 32 9 257
1962279S08087 1963 91 SI MM AMY 1962-10-07 00:00:00 TS -8.92060 82.5611 main 1673 1670 O________OO_O_ jtwc_sh SH011963 -8.90000 82.6000 35 0 -8.90000 82.6000 TC 35 -8.90000 82.6000 1 -8.90000 82.6000 TC 35 10 256
1962279S08087 1963 91 SI MM AMY 1962-10-07 03:00:00 TS -9.05897 82.0283 main 1687 1685 P________PP_P_ SH011963 -9.04251 82.0575 37 0 -9.04251 82.0575 TC 37 -9.03978 82.0651 1 -9.04251 82.0575 TC 37 11 255
1962279S08087 1963 91 SI MM AMY 1962-10-07 06:00:00 TS -9.20889 81.4874 main 1694 1694 O________OP_O_ jtwc_sh SH011963 -9.20000 81.5000 40 0 -9.20000 81.5000 TC 40 -9.19268 81.5202 1 -9.20000 81.5000 TC 40 11 254
1962279S08087 1963 91 SI MM AMY 1962-10-07 09:00:00 TS -9.35950 80.9696 main 1714 1714 P________PP_P_ SH011963 -9.35748 80.9700 40 0 -9.35748 80.9700 TC 40 -9.34919 80.9901 1 -9.35748 80.9700 TC 40 10 253
1962279S08087 1963 91 SI MM AMY 1962-10-07 12:00:00 TS -9.50000 80.5000 main 1725 1725 O________OO_O_ jtwc_sh SH011963 -9.50000 80.5000 40 0 -9.50000 80.5000 TC 40 -9.50000 80.5000 2 40 -9.50000 80.5000 TC 40 9 253
1962279S08087 1963 91 SI MM AMY 1962-10-07 15:00:00 TS -9.61114 80.1123 main 1737 1737 P________PP_P_ SH011963 -9.59986 80.1349 37 0 -9.59986 80.1349 TC 37 -9.63179 80.0817 2 -9.59986 80.1349 TC 37 8 253
1962279S08087 1963 91 SI MM AMY 1962-10-07 18:00:00 TS -9.72117 79.7551 main 1750 1750 O________OP_O_ jtwc_sh SH011963 -9.70000 79.8000 35 0 -9.70000 79.8000 TC 35 -9.75700 79.7048 2 -9.70000 79.8000 TC 35 8 251
1962279S08087 1963 91 SI MM AMY 1962-10-07 21:00:00 TS -9.86047 79.3669 main 1775 1775 P________PP_P_ SH011963 -9.85000 79.4000 32 -1 -9.85000 79.4000 TC 32 -9.87873 79.3505 2 -9.85000 79.4000 TC 32 8 250
1962279S08087 1963 91 SI MM AMY 1962-10-08 00:00:00 TS -9.99972 78.9822 main 1790 1790 O________OO_O_ jtwc_sh SH011963 -10.0000 79.0000 30 -1 -10.0000 79.0000 TC 30 -10.0000 79.0000 2 -10.0000 79.0000 TC 30 8 251
1962279S08087 1963 91 SI MM AMY 1962-10-08 03:00:00 TS -10.1097 78.6232 main 1806 1806 P________PP_P_ SH011963 -10.0999 78.6499 25 -1 -10.0999 78.6499 TC 25 -10.1249 78.6168 2 -10.0999 78.6499 TC 25 7 253
1962279S08087 1963 91 SI MM AMY 1962-10-08 06:00:00 TS -10.2198 78.2662 main 1821 1821 O________OP_O_ jtwc_sh SH011963 -10.2000 78.3000 20 -1 -10.2000 78.3000 TC 20 -10.2499 78.2349 2 -10.2000 78.3000 TC 20 8 251
1962279S08087 1963 91 SI MM AMY 1962-10-08 09:00:00 TS -10.3599 77.8816 main 1850 1850 P________PP_P_ SH011963 -10.3500 77.9000 17 -1 -10.3500 77.9000 TC 17 -10.3749 77.8606 2 -10.3500 77.9000 TC 17 8 250
1962279S08087 1963 91 SI MM AMY 1962-10-08 12:00:00 TS -10.5000 77.5000 main 1869 1869 O________OO_O_ jtwc_sh SH011963 -10.5000 77.5000 15 -1 -10.5000 77.5000 TC 15 -10.5000 77.5000 1 15 -10.5000 77.5000 TC 15 8 251
1962279S08087 1963 91 SI MM AMY 1962-10-08 15:00:00 TS -10.6099 77.1385 main 1889 1889 P________PP_P_ SH011963 -10.6000 77.1349 15 -1 -10.6000 77.1349 TC 15 -10.6248 77.1565 1 15 -10.6000 77.1349 TC 15 6 241
1962279S08087 1963 91 SI MM AMY 1962-10-08 18:00:00 TS -10.7956 76.9562 main 1913 1913 O________OP_O_ jtwc_sh SH011963 -10.7000 76.8000 15 -1 -10.7000 76.8000 TC 15 -10.7498 76.8274 1 15 -10.7000 76.8000 TC 15 6 225
1962279S08087 1963 91 SI MM AMY 1962-10-08 21:00:00 TS -11.0328 76.7042 main 1942 1942 P________PP_P_ SH011963 -10.8499 76.4925 15 -1 -10.8499 76.4925 TC 15 -10.8749 76.5096 1 15 -10.8499 76.4925 TC 15 7 228
1962279S08087 1963 91 SI MM AMY 1962-10-09 00:00:00 TS -11.2774 76.4072 main 1982 1982 O________OO_O_ jtwc_sh SH011963 -11.0000 76.2000 15 -1 -11.0000 76.2000 TC 15 -11.0000 76.2000 1 15 -11.0000 76.2000 TC 15 8 233
1962279S08087 1963 91 SI MM AMY 1962-10-09 03:00:00 TS -11.4931 76.0858 main 2012 2012 P________PP_P_ SH011963 -11.1000 75.8999 15 -1 -11.1000 75.8999 TC 15 -11.1248 75.8968 1 15 -11.1000 75.8999 TC 15 7 245
1962279S08087 1963 91 SI MM AMY 1962-10-09 06:00:00 TS -11.5818 75.7282 reunion main 2034 2034 O____O___OP_O_ jtwc_sh SH011963 -11.2000 75.6000 15 -1 -10.2000 75.3000 2 9.90000 -11.2000 75.6000 TC 15 -11.2498 75.5999 1 15 -11.2000 75.6000 TC 15 7 255
1962279S08087 1963 91 SI MM AMY 1962-10-09 09:00:00 TS -11.6750 75.4022 main 2054 2054 P____P___PP_P_ SH011963 -11.3500 75.3000 15 -1 -10.5725 75.1276 2 -11.3500 75.3000 TC 15 -11.3748 75.3030 1 15 -11.3500 75.3000 TC 15 7 254
1962279S08087 1963 91 SI MM AMY 1962-10-09 12:00:00 TS -11.7639 75.0908 reunion main 2074 2048 O____O___OO_O_ jtwc_sh SH011963 -11.5000 75.0000 15 -1 -10.9000 74.9000 99 9.90000 -11.5000 75.0000 TC 15 -11.5000 75.0000 1 15 -11.5000 75.0000 TC 15 6 255
1962279S08087 1963 91 SI MM AMY 1962-10-09 15:00:00 TS -11.8432 74.7719 main 2048 2014 P____P___PP_P_ SH011963 -11.5999 74.7074 17 -1 -11.1575 74.5799 99 -11.5999 74.7074 TC 17 -11.6250 74.6781 1 -11.5999 74.7074 TC 17 7 254
1962279S08087 1963 91 SI MM AMY 1962-10-09 18:00:00 TS -11.9444 74.4408 reunion main 2005 1966 O____O___OP_O_ jtwc_sh SH011963 -11.7000 74.4000 20 -1 -11.4000 74.2000 99 9.90000 -11.7000 74.4000 TC 20 -11.7500 74.3499 1 -11.7000 74.4000 TC 20 7 251
1962279S08087 1963 91 SI MM AMY 1962-10-09 21:00:00 TS -12.0709 74.0773 main 1966 1922 P____P___PP_P_ SH011963 -11.8500 74.0500 22 -1 -11.6925 73.8000 99 -11.8500 74.0500 TC 22 -11.8750 74.0218 1 -11.8500 74.0500 TC 22 8 250
1962279S08087 1963 91 SI MM AMY 1962-10-10 00:00:00 TS -12.1991 73.7093 reunion main 1922 1888 O____O___OO_O_ jtwc_sh SH011963 -12.0000 73.7000 25 -1 -12.0000 73.4000 99 9.90000 -12.0000 73.7000 TC 25 -12.0000 73.7000 2 -12.0000 73.7000 TC 25 7 251
1962279S08087 1963 91 SI MM AMY 1962-10-10 03:00:00 TS -12.3131 73.3611 main 1888 1854 P____P___PP_P_ SH011963 -12.0999 73.3924 30 -1 -12.3300 73.0275 99 -12.0999 73.3924 TC 30 -12.1206 73.4129 2 -12.0999 73.3924 TC 30 7 251
1962279S08087 1963 91 SI MM AMY 1962-10-10 06:00:00 TS -12.4213 73.0330 reunion main 1845 1811 O____O___OP_O_ jtwc_sh SH011963 -12.2000 73.1000 35 0 -12.6000 72.7000 3 9.90000 -12.2000 73.1000 TC 35 -12.2420 73.1297 2 -12.2000 73.1000 TC 35 7 251
1962279S08087 1963 91 SI MM AMY 1962-10-10 09:00:00 TS -12.5276 72.7325 main 1811 1787 P____P___PP_P_ SH011963 -12.3424 72.8150 37 0 -12.7224 72.4273 3 -12.3424 72.8150 TC 37 -12.3675 72.8316 2 -12.3424 72.8150 TC 37 6 250
1962279S08087 1963 91 SI MM AMY 1962-10-10 12:00:00 TS -12.6388 72.4364 reunion main 1777 1738 O____O___OO_O_ jtwc_sh SH011963 -12.5000 72.5000 40 0 -12.8000 72.2000 99 9.90000 -12.5000 72.5000 TC 40 -12.5000 72.5000 2 40 -12.5000 72.5000 TC 40 6 248
1962279S08087 1963 91 SI MM AMY 1962-10-10 15:00:00 TS -12.7615 72.1258 main 1738 1704 P____P___PP_P_ SH011963 -12.6500 72.1225 32 -1 -12.9349 72.0074 99 -12.6500 72.1225 TC 32 -12.6306 72.1148 2 32 -12.6500 72.1225 TC 40 7 248
1962279S08087 1963 91 SI MM AMY 1962-10-10 18:00:00 TS -12.8884 71.7924 reunion main 1704 1661 O____O___OP_O_ jtwc_sh SH011963 -12.8000 71.7000 25 -1 -13.1000 71.8000 99 9.90000 -12.8000 71.7000 TC 25 -12.7700 71.6947 2 25 -12.8000 71.7000 TC 40 7 250
1962279S08087 1963 91 SI MM AMY 1962-10-10 21:00:00 TS -13.0066 71.4280 main 1661 1627 P____P___PP_P_ SH011963 -12.9425 71.2574 17 -1 -13.3000 71.5150 99 -12.9425 71.2574 TC 17 -12.9243 71.2522 2 17 -12.9425 71.2574 TC 37 8 252
1962279S08087 1963 91 SI MM AMY 1962-10-11 00:00:00 TS -13.1308 71.0430 reunion main 1618 1579 O____O___OO_O_ jtwc_sh SH011963 -13.1000 70.8000 10 -1 -13.5000 71.2000 99 9.90000 -13.1000 70.8000 TC 10 -13.1000 70.8000 1 10 -13.1000 70.8000 TC 35 8 251
1962279S08087 1963 91 SI MM AMY 1962-10-11 03:00:00 TS -13.2648 70.6495 main 1569 1536 P____P___PP_P_ SH011963 -13.2849 70.3499 12 -1 -13.6575 70.8924 99 -13.2849 70.3499 TC 12 -13.2993 70.3490 1 11 -13.2849 70.3499 TC 35 8 249
1962279S08087 1963 91 SI MM AMY 1962-10-11 06:00:00 TS -13.4219 70.2442 reunion main 1526 1487 O____O___OP_O_ jtwc_sh SH011963 -13.5000 69.9000 15 -1 -13.8000 70.6000 3 9.90000 -13.5000 69.9000 TC 15 -13.5199 69.8924 1 12 -13.5000 69.9000 TC 35 9 246
1962279S08087 1963 91 SI MM AMY 1962-10-11 09:00:00 TS -13.6146 69.8271 main 1478 1429 P____P___PP_P_ SH011963 -13.7425 69.4425 15 -1 -13.9499 70.3499 3 -13.7425 69.4425 TC 15 -13.7556 69.4396 1 13 -13.7425 69.4425 TC 35 9 244
1962279S08087 1963 91 SI MM AMY 1962-10-11 12:00:00 TS -13.8249 69.4094 reunion main 1429 1381 O____O___OO_O_ jtwc_sh SH011963 -14.0000 69.0000 15 -1 -14.1000 70.1000 99 9.90000 -14.0000 69.0000 TC 15 -14.0000 69.0000 1 15 -14.0000 69.0000 TC 35 9 243
1962279S08087 1963 91 SI MM AMY 1962-10-11 15:00:00 TS -14.0322 68.9999 main 1381 1332 P____P___PP_P_ SH011963 -14.2499 68.5924 15 -1 -14.2425 69.8074 99 -14.2499 68.5924 TC 15 -14.2423 68.5974 1 15 -14.2499 68.5924 TC 35 9 242
1962279S08087 1963 91 SI MM AMY 1962-10-11 18:00:00 TS -14.2386 68.6096 reunion main 1332 1293 O____O___OP_O_ jtwc_sh SH011963 -14.5000 68.2000 15 -1 -14.4000 69.5000 99 9.90000 -14.5000 68.2000 TC 15 -14.4918 68.2070 1 15 -14.5000 68.2000 TC 35 8 241
1962279S08087 1963 91 SI MM AMY 1962-10-11 21:00:00 TS -14.4342 68.2608 main 1293 1244 P____P___PP_P_ SH011963 -14.7499 67.8074 15 -1 -14.6074 69.2150 99 -14.7499 67.8074 TC 15 -14.7454 67.8130 1 15 -14.7499 67.8074 TC 35 8 240
1962279S08087 1963 91 SI MM AMY 1962-10-12 00:00:00 TS -14.6248 67.9176 reunion main 1244 1205 O____O___OO_O_ jtwc_sh SH011963 -15.0000 67.4000 15 -1 -14.8000 68.9000 99 9.90000 -15.0000 67.4000 TC 15 -15.0000 67.4000 1 15 -15.0000 67.4000 TC 35 8 241
1962279S08087 1963 91 SI MM AMY 1962-10-12 03:00:00 TS -14.8030 67.5593 main 1205 1157 P____P___PP_P_ SH011963 -15.2499 66.9649 17 -1 -14.9074 68.5373 99 -15.2499 66.9649 TC 17 -15.2622 66.9385 1 16 -15.2499 66.9649 TC 35 8 243
1962279S08087 1963 91 SI MM AMY 1962-10-12 06:00:00 TS -15.0090 67.1523 reunion main 1157 1094 O____O___OP_O_ jtwc_sh SH011963 -15.5000 66.5000 20 -1 -15.0000 68.1000 3 9.90000 -15.5000 66.5000 TC 20 -15.5225 66.4576 1 17 -15.5000 66.5000 TC 35 10 241
1962279S08087 1963 91 SI MM AMY 1962-10-12 09:00:00 TS -15.2849 66.6627 main 1094 1030 P____P___PP_P_ SH011963 -15.7575 65.9925 20 -1 -15.1275 67.5799 3 -15.7575 65.9925 TC 20 -15.7716 65.9729 1 18 -15.7575 65.9925 TC 32 11 239
1962279S08087 1963 91 SI MM AMY 1962-10-12 12:00:00 TS -15.5856 66.1374 reunion main 1021 967 O____O___OO_O_ jtwc_sh SH011963 -16.0000 65.5000 20 -1 -15.3000 67.0000 99 9.90000 -16.0000 65.5000 TC 20 -16.0000 65.5000 1 20 -16.0000 65.5000 TC 30 12 239
1962279S08087 1963 91 SI MM AMY 1962-10-12 15:00:00 TS -15.8758 65.6411 main 958 910 P____P___PP_P_ SH011963 -16.2148 65.0924 20 -1 -15.5425 66.4001 99 -16.2148 65.0924 TC 20 -16.1917 65.0842 1 20 -16.2148 65.0924 TC 27 11 240
1962279S08087 1963 91 SI MM AMY 1962-10-12 18:00:00 TS -16.1389 65.1384 reunion main 900 852 O____O___OP_O_ jtwc_sh SH011963 -16.4000 64.7000 20 -1 -15.8000 65.8000 99 9.90000 -16.4000 64.7000 TC 20 -16.3639 64.6789 1 20 -16.4000 64.7000 TC 25 11 244
1962279S08087 1963 91 SI MM AMY 1962-10-12 21:00:00 TS -16.3478 64.6216 main 843 786 P____P___PP_P_ SH011963 -16.5498 64.2723 20 -1 -15.9995 65.2721 99 -16.5498 64.2723 TC 20 -16.5291 64.2592 1 20 -16.5498 64.2723 TC 22 11 249
1962279S08087 1963 91 SI MM AMY 1962-10-13 00:00:00 TS -16.5323 64.0658 reunion main 786 720 O____O___OO_O_ jtwc_sh SH011963 -16.7000 63.8000 20 -1 -16.2000 64.7000 99 9.90000 -16.7000 63.8000 TC 20 -16.7000 63.8000 1 20 -16.7000 63.8000 TC 20 12 252
1962279S08087 1963 91 SI MM AMY 1962-10-13 03:00:00 TS -16.7247 63.4459 main 711 646 P____P___PP_P_ SH011963 -16.8924 63.2725 20 -1 -16.4578 63.9577 99 -16.8924 63.2725 TC 20 -16.9051 63.2643 1 20 -16.8924 63.2725 TC 20 13 253
1962279S08087 1963 91 SI MM AMY 1962-10-13 06:00:00 TS -16.9051 62.8061 reunion main 646 580 O____O___OP_O_ jtwc_sh SH011963 -17.1000 62.7000 20 -1 -16.7000 63.2000 2 9.90000 -17.1000 62.7000 TC 20 -17.1152 62.6878 1 20 -17.1000 62.7000 TC 20 13 254
1962279S08087 1963 91 SI MM AMY 1962-10-13 09:00:00 TS -17.0727 62.1920 main 580 523 P____P___PP_P_ SH011963 -17.3150 62.1001 20 -1 -16.8718 62.6072 2 -17.3150 62.1001 TC 20 -17.3176 62.0924 1 20 -17.3150 62.1001 TC 20 12 255
1962279S08087 1963 91 SI MM AMY 1962-10-13 12:00:00 TS -17.2159 61.5919 reunion main 523 467 O____O___OO_O_ jtwc_sh SH011963 -17.5000 61.5000 20 -1 -17.0000 62.0000 99 9.90000 -17.5000 61.5000 TC 20 -17.5000 61.5000 1 20 -17.5000 61.5000 TC 20 12 257
1962279S08087 1963 91 SI MM AMY 1962-10-13 15:00:00 TS -17.3253 61.0103 main 467 422 P____P___PP_P_ SH011963 -17.6073 60.9422 20 -1 -17.0849 61.2370 99 -17.6073 60.9422 TC 20 -17.6459 60.9463 1 18 -17.6073 60.9422 TC 20 11 259
1962279S08087 1963 91 SI MM AMY 1962-10-13 18:00:00 TS -17.4254 60.4243 reunion main 414 365 O____O___OP_O_ jtwc_sh SH011963 -17.7000 60.4000 20 -1 -17.2000 60.4000 99 9.90000 -17.7000 60.4000 TC 20 -17.7716 60.3992 1 17 -17.7000 60.4000 TC 20 12 259
1962279S08087 1963 91 SI MM AMY 1962-10-13 21:00:00 TS -17.5475 59.8144 main 365 311 P____P___PP_P_ SH011963 -17.8498 59.8575 17 -1 -17.4421 59.5653 99 -17.8498 59.8575 TC 17 -17.8865 59.8526 1 16 -17.8498 59.8575 TC 17 12 258
1962279S08087 1963 91 SI MM AMY 1962-10-14 00:00:00 TS -17.6667 59.1919 reunion main 311 274 O____O___OO_O_ jtwc_sh SH011963 -18.0000 59.3000 15 -1 -17.7000 58.7000 99 9.90000 -18.0000 59.3000 TC 15 -18.0000 59.3000 1 15 -18.0000 59.3000 TC 15 12 260
1962279S08087 1963 91 SI MM AMY 1962-10-14 03:00:00 TS -17.7630 58.5486 main 270 248 P____P___PP_P_ SH011963 -18.1000 58.6998 15 -1 -17.8805 57.7400 99 -18.1000 58.6998 TC 15 -18.1330 58.7201 1 15 -18.1000 58.6998 TC 15 12 261
1962279S08087 1963 91 SI MM AMY 1962-10-14 06:00:00 TS -17.8572 57.9331 reunion main 247 234 O____O___OP_O_ jtwc_sh SH011963 -18.2000 58.1000 15 -1 -18.0000 56.9000 2 9.90000 -18.2000 58.1000 TC 15 -18.2648 58.1351 1 15 -18.2000 58.1000 TC 15 11 259
1962279S08087 1963 91 SI MM AMY 1962-10-14 09:00:00 TS -17.9702 57.3898 main 235 229 P____P___PP_P_ SH011963 -18.3498 57.5351 15 -1 -18.0493 56.3822 2 -18.3498 57.5351 TC 15 -18.3892 57.5576 1 15 -18.3498 57.5351 TC 15 10 257
1962279S08087 1963 91 SI MM AMY 1962-10-14 12:00:00 TS -18.0871 56.8872 reunion main 232 232 O____O___OO_O_ jtwc_sh SH011963 -18.5000 57.0000 15 -1 -18.1000 56.0000 2 9.90000 -18.5000 57.0000 TC 15 -18.5000 57.0000 1 15 -18.5000 57.0000 TC 15 10 256
1962279S08087 1963 91 SI MM AMY 1962-10-14 15:00:00 TS -18.2016 56.3971 main 241 241 P____P___PP_P_ SH011963 -18.6148 56.4924 15 -1 -18.2424 55.5501 2 -18.6148 56.4924 TC 15 -18.5927 56.4781 1 15 -18.6148 56.4924 TC 15 10 257
1962279S08087 1963 91 SI MM AMY 1962-10-14 18:00:00 TS -18.3064 55.9086 reunion main 262 262 O____O___OP_O_ jtwc_sh SH011963 -18.7000 56.0000 15 -1 -18.4000 55.1000 99 9.90000 -18.7000 56.0000 TC 15 -18.6716 55.9771 1 15 -18.7000 56.0000 TC 15 10 259
1962279S08087 1963 91 SI MM AMY 1962-10-14 21:00:00 TS -18.3900 55.3912 main 290 281 P____P___PP_P_ SH011963 -18.7574 55.4999 15 -1 -18.4999 54.6423 99 -18.7574 55.4999 TC 15 -18.7397 55.4876 1 15 -18.7574 55.4999 TC 15 10 261
1962279S08087 1963 91 SI MM AMY 1962-10-15 00:00:00 TS -18.4642 54.8680 reunion main 282 282 O____O___OO_O_ jtwc_sh SH011963 -18.8000 55.0000 15 -1 -18.6000 54.2000 99 9.90000 -18.8000 55.0000 TC 15 -18.8000 55.0000 1 15 -18.8000 55.0000 TC 15 10 261
1962279S08087 1963 91 SI MM AMY 1962-10-15 03:00:00 TS -18.5413 54.3445 main 298 288 P____P___PP_P_ SH011963 -18.8499 54.5000 17 -1 -18.7575 53.7626 99 -18.8499 54.5000 TC 17 -18.8651 54.4919 1 18 -18.8499 54.5000 TC 17 10 261
1962279S08087 1963 91 SI MM AMY 1962-10-15 06:00:00 TS -18.6178 53.8427 reunion main 310 310 O____O___OP_O_ jtwc_sh SH011963 -18.9000 54.0000 20 -1 -18.9000 53.4000 6 9.90000 -18.9000 54.0000 TC 20 -18.9222 53.9850 1 22 -18.9000 54.0000 TC 20 9 261
1962279S08087 1963 91 SI MM AMY 1962-10-15 09:00:00 TS -18.6925 53.3730 main 325 325 P____P___PP_P_ SH011963 -18.9574 53.4925 25 -1 -18.9573 53.1848 6 -18.9574 53.4925 TC 25 -18.9682 53.4857 1 26 -18.9574 53.4925 TC 25 9 260
1962279S08087 1963 91 SI MM AMY 1962-10-15 12:00:00 TS -18.7680 52.9392 reunion main 351 344 O____O___OO_O_ jtwc_sh SH011963 -19.0000 53.0000 30 -1 -19.0000 53.0000 99 9.90000 -19.0000 53.0000 TC 30 -19.0000 53.0000 1 30 -19.0000 53.0000 TC 30 8 259
1962279S08087 1963 91 SI MM AMY 1962-10-15 15:00:00 TS -18.8438 52.5364 main 333 305 P____P___PP_P_ SH011963 -19.0073 52.5424 30 -1 -19.0851 52.7000 99 -19.0073 52.5424 TC 30 -19.0157 52.5324 1 27 -19.0073 52.5424 TC 30 7 259
1962279S08087 1963 91 SI MM AMY 1962-10-15 18:00:00 TS -18.9102 52.1707 reunion main 305 278 O____O___OP_O_ jtwc_sh SH011963 -19.0000 52.1000 30 -1 -19.2000 52.4000 99 9.90000 -19.0000 52.1000 TC 30 -19.0182 52.0799 1 25 -19.0000 52.1000 TC 30 7 256
1962279S08087 1963 91 SI MM AMY 1962-10-15 21:00:00 TS -19.0039 51.8440 main 268 252 P____P___PP_P_ SH011963 -18.9552 51.5824 25 -1 -19.3274 52.1849 99 -18.9977 51.6525 TC 25 -19.0116 51.6374 1 22 -18.9977 51.6525 TC 25 6 247
1962279S08087 1963 91 SI MM AMY 1962-10-16 00:00:00 TS -19.1479 51.5654 reunion main 252 247 O____O___OO_O_ jtwc_sh SH011963 -19.0000 51.2000 20 -1 -19.5000 52.0000 99 9.90000 -19.0000 51.2000 TC 20 -19.0000 51.2000 1 20 -19.0000 51.2000 TC 20 6 216
1962279S08087 1963 91 SI MM AMY 1962-10-16 03:00:00 TS -19.4450 51.4993 main 254 243 P____P________ SH011963 -19.2399 51.1099 -1 -19.7326 51.8052 99 TC 1 TC 6 204
1962279S08087 1963 91 SI MM AMY 1962-10-16 06:00:00 TS -19.7000 51.3000 reunion main 243 O____O________ jtwc_sh SH021963 -19.6000 51.2000 -1 -20.0000 51.6000 6 9.90000 1 6 216

About IBTrACS Database

This database is a web-friendly format of International Best Track Archive for Climate Stewardship (IBTrACS), a global best track data archive curated by NOAA dating back to 1842.

Updated: 2021-11-26